sensor_id;sensor_type;location;lat;lon;timestamp;temperature;humidity
52643;DHT22;38531;53.296;6.614;2023-02-21T00:00:55;9.70;99.90
52643;DHT22;38531;53.296;6.614;2023-02-21T00:03:39;9.70;99.90
52643;DHT22;38531;53.296;6.614;2023-02-21T00:06:23;9.60;99.90
52643;DHT22;38531;53.296;6.614;2023-02-21T00:09:08;9.70;99.90
52643;DHT22;38531;53.296;6.614;2023-02-21T00:11:52;9.70;99.90
52643;DHT22;38531;53.296;6.614;2023-02-21T00:14:37;9.70;99.90
52643;DHT22;38531;53.296;6.614;2023-02-21T00:17:22;9.90;99.90
52643;DHT22;38531;53.296;6.614;2023-02-21T00:20:07;9.70;99.90
52643;DHT22;38531;53.296;6.614;2023-02-21T00:22:51;9.60;99.90
52643;DHT22;38531;53.296;6.614;2023-02-21T00:25:36;9.70;99.90
52643;DHT22;38531;53.296;6.614;2023-02-21T00:28:20;9.70;99.90
52643;DHT22;38531;53.296;6.614;2023-02-21T00:31:05;9.70;99.90
52643;DHT22;38531;53.296;6.614;2023-02-21T00:33:49;9.70;99.90
52643;DHT22;38531;53.296;6.614;2023-02-21T00:36:33;9.70;99.90
52643;DHT22;38531;53.296;6.614;2023-02-21T00:39:18;9.70;99.90
52643;DHT22;38531;53.296;6.614;2023-02-21T00:42:02;10.50;99.90
52643;DHT22;38531;53.296;6.614;2023-02-21T00:44:47;9.70;99.90
52643;DHT22;38531;53.296;6.614;2023-02-21T00:47:31;9.60;99.90
52643;DHT22;38531;53.296;6.614;2023-02-21T00:50:16;9.70;99.90
52643;DHT22;38531;53.296;6.614;2023-02-21T00:53:00;9.70;99.90
52643;DHT22;38531;53.296;6.614;2023-02-21T00:55:44;9.60;99.90
52643;DHT22;38531;53.296;6.614;2023-02-21T00:58:29;9.60;99.90
52643;DHT22;38531;53.296;6.614;2023-02-21T01:01:13;9.60;99.90
52643;DHT22;38531;53.296;6.614;2023-02-21T01:03:58;9.60;99.90
52643;DHT22;38531;53.296;6.614;2023-02-21T01:06:42;9.60;99.90
52643;DHT22;38531;53.296;6.614;2023-02-21T01:09:26;9.60;99.90
52643;DHT22;38531;53.296;6.614;2023-02-21T01:12:11;9.70;99.90
52643;DHT22;38531;53.296;6.614;2023-02-21T01:14:55;9.60;99.90
52643;DHT22;38531;53.296;6.614;2023-02-21T01:17:40;9.50;99.90
52643;DHT22;38531;53.296;6.614;2023-02-21T01:20:24;9.60;99.90
52643;DHT22;38531;53.296;6.614;2023-02-21T01:23:08;9.60;99.90
52643;DHT22;38531;53.296;6.614;2023-02-21T01:25:52;9.60;99.90
52643;DHT22;38531;53.296;6.614;2023-02-21T01:28:37;9.60;99.90
52643;DHT22;38531;53.296;6.614;2023-02-21T01:31:21;9.90;99.90
52643;DHT22;38531;53.296;6.614;2023-02-21T01:34:06;9.50;99.90
52643;DHT22;38531;53.296;6.614;2023-02-21T01:36:51;10.60;99.90
52643;DHT22;38531;53.296;6.614;2023-02-21T01:39:35;9.70;99.90
52643;DHT22;38531;53.296;6.614;2023-02-21T01:42:20;9.60;99.90
52643;DHT22;38531;53.296;6.614;2023-02-21T01:48:07;9.50;99.90
52643;DHT22;38531;53.296;6.614;2023-02-21T01:50:53;9.60;99.90
52643;DHT22;38531;53.296;6.614;2023-02-21T01:53:38;9.50;99.90
52643;DHT22;38531;53.296;6.614;2023-02-21T01:56:23;9.60;99.90
52643;DHT22;38531;53.296;6.614;2023-02-21T01:59:07;9.70;99.90
52643;DHT22;38531;53.296;6.614;2023-02-21T02:02:09;10.20;99.90
52643;DHT22;38531;53.296;6.614;2023-02-21T02:04:54;9.50;99.90
52643;DHT22;38531;53.296;6.614;2023-02-21T02:07:39;9.50;99.90
52643;DHT22;38531;53.296;6.614;2023-02-21T02:10:24;9.50;99.90
52643;DHT22;38531;53.296;6.614;2023-02-21T02:13:24;9.90;99.90
52643;DHT22;38531;53.296;6.614;2023-02-21T02:16:09;9.60;99.90
52643;DHT22;38531;53.296;6.614;2023-02-21T02:21:35;9.50;99.90
52643;DHT22;38531;53.296;6.614;2023-02-21T02:27:10;9.40;99.90
52643;DHT22;38531;53.296;6.614;2023-02-21T02:35:19;10.20;99.90
52643;DHT22;38531;53.296;6.614;2023-02-21T02:41:00;9.40;99.90
52643;DHT22;38531;53.296;6.614;2023-02-21T02:49:06;9.40;99.90
52643;DHT22;38531;53.296;6.614;2023-02-21T02:51:34;10.20;99.90
52643;DHT22;38531;53.296;6.614;2023-02-21T02:54:00;9.40;99.90
52643;DHT22;38531;53.296;6.614;2023-02-21T02:56:26;9.40;99.90
52643;DHT22;38531;53.296;6.614;2023-02-21T02:58:54;9.30;99.90
52643;DHT22;38531;53.296;6.614;2023-02-21T03:13:23;9.40;99.90
52643;DHT22;38531;53.296;6.614;2023-02-21T03:16:08;8.60;99.90
52643;DHT22;38531;53.296;6.614;2023-02-21T03:19:00;9.40;99.90
52643;DHT22;38531;53.296;6.614;2023-02-21T03:21:33;9.30;99.90
52643;DHT22;38531;53.296;6.614;2023-02-21T03:24:01;9.40;99.90
52643;DHT22;38531;53.296;6.614;2023-02-21T03:26:32;9.30;99.90
52643;DHT22;38531;53.296;6.614;2023-02-21T03:28:59;10.40;99.90
52643;DHT22;38531;53.296;6.614;2023-02-21T03:31:31;9.40;99.90
52643;DHT22;38531;53.296;6.614;2023-02-21T03:33:59;9.40;99.90
52643;DHT22;38531;53.296;6.614;2023-02-21T03:36:26;8.90;99.90
52643;DHT22;38531;53.296;6.614;2023-02-21T03:38:52;9.40;99.90
52643;DHT22;38531;53.296;6.614;2023-02-21T03:41:17;9.30;99.90
52643;DHT22;38531;53.296;6.614;2023-02-21T03:43:43;9.40;99.90
52643;DHT22;38531;53.296;6.614;2023-02-21T03:46:09;9.40;99.90
52643;DHT22;38531;53.296;6.614;2023-02-21T03:48:35;10.40;99.90
52643;DHT22;38531;53.296;6.614;2023-02-21T03:51:01;9.40;99.90
52643;DHT22;38531;53.296;6.614;2023-02-21T03:53:26;9.70;99.90
52643;DHT22;38531;53.296;6.614;2023-02-21T03:55:52;9.30;99.90
52643;DHT22;38531;53.296;6.614;2023-02-21T03:58:18;9.30;99.90
52643;DHT22;38531;53.296;6.614;2023-02-21T04:00:44;9.40;99.90
52643;DHT22;38531;53.296;6.614;2023-02-21T04:03:10;9.80;99.90
52643;DHT22;38531;53.296;6.614;2023-02-21T04:05:35;9.30;99.90
52643;DHT22;38531;53.296;6.614;2023-02-21T04:08:02;9.30;99.90
52643;DHT22;38531;53.296;6.614;2023-02-21T04:10:28;9.30;99.90
52643;DHT22;38531;53.296;6.614;2023-02-21T04:12:54;10.30;99.90
52643;DHT22;38531;53.296;6.614;2023-02-21T04:15:19;9.30;99.90
52643;DHT22;38531;53.296;6.614;2023-02-21T04:17:45;9.30;99.90
52643;DHT22;38531;53.296;6.614;2023-02-21T04:20:12;9.30;99.90
52643;DHT22;38531;53.296;6.614;2023-02-21T04:22:38;9.60;99.90
52643;DHT22;38531;53.296;6.614;2023-02-21T04:25:05;9.80;99.90
52643;DHT22;38531;53.296;6.614;2023-02-21T04:27:31;9.20;99.90
52643;DHT22;38531;53.296;6.614;2023-02-21T04:29:57;9.20;99.90
52643;DHT22;38531;53.296;6.614;2023-02-21T04:32:23;9.20;99.90
52643;DHT22;38531;53.296;6.614;2023-02-21T04:34:48;9.80;99.90
52643;DHT22;38531;53.296;6.614;2023-02-21T04:37:14;9.10;99.90
52643;DHT22;38531;53.296;6.614;2023-02-21T04:39:40;9.20;99.90
52643;DHT22;38531;53.296;6.614;2023-02-21T04:42:05;9.20;99.90
52643;DHT22;38531;53.296;6.614;2023-02-21T04:44:31;9.20;99.90
52643;DHT22;38531;53.296;6.614;2023-02-21T04:46:57;9.20;99.90
52643;DHT22;38531;53.296;6.614;2023-02-21T04:49:22;9.20;99.90
52643;DHT22;38531;53.296;6.614;2023-02-21T04:51:52;9.20;99.90
52643;DHT22;38531;53.296;6.614;2023-02-21T04:54:18;9.20;99.90
52643;DHT22;38531;53.296;6.614;2023-02-21T04:56:44;9.20;99.90
52643;DHT22;38531;53.296;6.614;2023-02-21T04:59:10;9.80;99.90
52643;DHT22;38531;53.296;6.614;2023-02-21T05:01:36;9.90;99.90
52643;DHT22;38531;53.296;6.614;2023-02-21T05:04:02;9.20;99.90
52643;DHT22;38531;53.296;6.614;2023-02-21T05:06:30;9.10;99.90
52643;DHT22;38531;53.296;6.614;2023-02-21T05:08:56;9.10;99.90
52643;DHT22;38531;53.296;6.614;2023-02-21T05:11:22;9.10;99.90
52643;DHT22;38531;53.296;6.614;2023-02-21T05:13:48;9.80;99.90
52643;DHT22;38531;53.296;6.614;2023-02-21T05:16:15;9.10;99.90
52643;DHT22;38531;53.296;6.614;2023-02-21T05:18:41;9.10;99.90
52643;DHT22;38531;53.296;6.614;2023-02-21T05:21:07;10.20;99.90
52643;DHT22;38531;53.296;6.614;2023-02-21T05:23:33;9.10;99.90
52643;DHT22;38531;53.296;6.614;2023-02-21T05:26:08;9.10;99.90
52643;DHT22;38531;53.296;6.614;2023-02-21T05:28:35;9.10;99.90
52643;DHT22;38531;53.296;6.614;2023-02-21T05:31:01;9.00;99.90
52643;DHT22;38531;53.296;6.614;2023-02-21T05:33:27;9.70;99.90
52643;DHT22;38531;53.296;6.614;2023-02-21T05:35:52;9.10;99.90
52643;DHT22;38531;53.296;6.614;2023-02-21T05:38:21;9.50;99.90
52643;DHT22;38531;53.296;6.614;2023-02-21T05:40:47;8.60;99.90
52643;DHT22;38531;53.296;6.614;2023-02-21T05:43:13;9.10;99.90
52643;DHT22;38531;53.296;6.614;2023-02-21T05:45:39;9.00;99.90
52643;DHT22;38531;53.296;6.614;2023-02-21T05:48:05;9.50;99.90
52643;DHT22;38531;53.296;6.614;2023-02-21T05:50:34;9.00;99.90
52643;DHT22;38531;53.296;6.614;2023-02-21T05:53:00;9.10;99.90
52643;DHT22;38531;53.296;6.614;2023-02-21T05:55:26;9.60;99.90
52643;DHT22;38531;53.296;6.614;2023-02-21T05:57:52;9.00;99.90
52643;DHT22;38531;53.296;6.614;2023-02-21T06:00:26;9.00;99.90
52643;DHT22;38531;53.296;6.614;2023-02-21T06:02:53;9.00;99.90
52643;DHT22;38531;53.296;6.614;2023-02-21T06:05:19;9.00;99.90
52643;DHT22;38531;53.296;6.614;2023-02-21T06:07:46;9.60;99.90
52643;DHT22;38531;53.296;6.614;2023-02-21T06:10:12;9.00;99.90
52643;DHT22;38531;53.296;6.614;2023-02-21T06:12:38;9.00;99.90
52643;DHT22;38531;53.296;6.614;2023-02-21T06:15:04;9.00;99.90
52643;DHT22;38531;53.296;6.614;2023-02-21T06:17:35;9.00;99.90
52643;DHT22;38531;53.296;6.614;2023-02-21T06:20:02;9.00;99.90
52643;DHT22;38531;53.296;6.614;2023-02-21T06:22:28;9.00;99.90
52643;DHT22;38531;53.296;6.614;2023-02-21T06:24:54;9.00;99.90
52643;DHT22;38531;53.296;6.614;2023-02-21T06:27:20;9.00;99.90
52643;DHT22;38531;53.296;6.614;2023-02-21T06:29:45;9.00;99.90
52643;DHT22;38531;53.296;6.614;2023-02-21T06:32:11;8.90;99.90
52643;DHT22;38531;53.296;6.614;2023-02-21T06:34:37;8.90;99.90
52643;DHT22;38531;53.296;6.614;2023-02-21T06:37:02;9.70;99.90
52643;DHT22;38531;53.296;6.614;2023-02-21T06:39:28;8.90;99.90
52643;DHT22;38531;53.296;6.614;2023-02-21T06:41:54;9.80;99.90
52643;DHT22;38531;53.296;6.614;2023-02-21T06:44:20;8.90;99.90
52643;DHT22;38531;53.296;6.614;2023-02-21T06:46:47;8.90;99.90
52643;DHT22;38531;53.296;6.614;2023-02-21T06:49:15;9.30;99.90
52643;DHT22;38531;53.296;6.614;2023-02-21T06:51:41;9.10;99.90
52643;DHT22;38531;53.296;6.614;2023-02-21T06:54:07;9.00;99.90
52643;DHT22;38531;53.296;6.614;2023-02-21T06:56:33;9.00;99.90
52643;DHT22;38531;53.296;6.614;2023-02-21T06:58:59;8.90;99.90
52643;DHT22;38531;53.296;6.614;2023-02-21T07:01:27;8.90;99.90
52643;DHT22;38531;53.296;6.614;2023-02-21T07:03:53;9.00;99.90
52643;DHT22;38531;53.296;6.614;2023-02-21T07:06:19;8.90;99.90
52643;DHT22;38531;53.296;6.614;2023-02-21T07:08:45;8.90;99.90
52643;DHT22;38531;53.296;6.614;2023-02-21T07:11:11;8.90;99.90
52643;DHT22;38531;53.296;6.614;2023-02-21T07:13:37;8.90;99.90
52643;DHT22;38531;53.296;6.614;2023-02-21T07:16:04;9.00;99.90
52643;DHT22;38531;53.296;6.614;2023-02-21T07:18:30;8.90;99.90
52643;DHT22;38531;53.296;6.614;2023-02-21T07:20:56;8.90;99.90
52643;DHT22;38531;53.296;6.614;2023-02-21T07:23:22;9.00;99.90
52643;DHT22;38531;53.296;6.614;2023-02-21T07:25:50;9.60;99.90
52643;DHT22;38531;53.296;6.614;2023-02-21T07:28:16;8.90;99.90
52643;DHT22;38531;53.296;6.614;2023-02-21T07:30:42;9.00;99.90
52643;DHT22;38531;53.296;6.614;2023-02-21T07:33:08;9.00;99.90
52643;DHT22;38531;53.296;6.614;2023-02-21T07:35:34;8.90;99.90
52643;DHT22;38531;53.296;6.614;2023-02-21T07:38:00;9.00;99.90
52643;DHT22;38531;53.296;6.614;2023-02-21T07:40:25;9.00;99.90
52643;DHT22;38531;53.296;6.614;2023-02-21T07:42:51;9.00;99.90
52643;DHT22;38531;53.296;6.614;2023-02-21T07:45:17;9.00;99.90
52643;DHT22;38531;53.296;6.614;2023-02-21T07:47:44;9.00;99.90
52643;DHT22;38531;53.296;6.614;2023-02-21T07:50:10;9.00;99.90
52643;DHT22;38531;53.296;6.614;2023-02-21T07:52:36;9.00;99.90
52643;DHT22;38531;53.296;6.614;2023-02-21T07:55:02;9.00;99.90
52643;DHT22;38531;53.296;6.614;2023-02-21T07:57:28;9.00;99.90
52643;DHT22;38531;53.296;6.614;2023-02-21T07:59:54;9.10;99.90
52643;DHT22;38531;53.296;6.614;2023-02-21T08:02:20;9.10;99.90
52643;DHT22;38531;53.296;6.614;2023-02-21T08:04:49;9.10;99.90
52643;DHT22;38531;53.296;6.614;2023-02-21T08:07:15;9.10;99.90
52643;DHT22;38531;53.296;6.614;2023-02-21T08:09:41;9.20;99.90
52643;DHT22;38531;53.296;6.614;2023-02-21T08:12:07;9.00;99.90
52643;DHT22;38531;53.296;6.614;2023-02-21T08:14:32;9.20;99.90
52643;DHT22;38531;53.296;6.614;2023-02-21T08:16:58;9.30;99.90
52643;DHT22;38531;53.296;6.614;2023-02-21T08:19:24;9.30;99.90
52643;DHT22;38531;53.296;6.614;2023-02-21T08:21:50;9.40;99.90
52643;DHT22;38531;53.296;6.614;2023-02-21T08:24:17;9.30;99.90
52643;DHT22;38531;53.296;6.614;2023-02-21T08:26:43;9.30;99.90
52643;DHT22;38531;53.296;6.614;2023-02-21T08:29:10;9.40;99.90
52643;DHT22;38531;53.296;6.614;2023-02-21T08:31:38;9.30;99.90
52643;DHT22;38531;53.296;6.614;2023-02-21T08:34:04;9.40;99.90
52643;DHT22;38531;53.296;6.614;2023-02-21T08:36:32;9.40;99.90
52643;DHT22;38531;53.296;6.614;2023-02-21T08:38:57;9.50;99.90
52643;DHT22;38531;53.296;6.614;2023-02-21T08:41:23;9.50;99.90
52643;DHT22;38531;53.296;6.614;2023-02-21T08:43:50;9.60;99.90
52643;DHT22;38531;53.296;6.614;2023-02-21T08:46:16;9.60;99.90
52643;DHT22;38531;53.296;6.614;2023-02-21T08:48:42;9.60;99.90
52643;DHT22;38531;53.296;6.614;2023-02-21T08:51:08;9.70;99.90
52643;DHT22;38531;53.296;6.614;2023-02-21T08:53:34;9.70;99.90
52643;DHT22;38531;53.296;6.614;2023-02-21T08:56:00;9.80;99.90
52643;DHT22;38531;53.296;6.614;2023-02-21T08:58:26;10.60;99.90
52643;DHT22;38531;53.296;6.614;2023-02-21T09:00:52;9.90;99.90
52643;DHT22;38531;53.296;6.614;2023-02-21T09:03:17;9.90;99.90
52643;DHT22;38531;53.296;6.614;2023-02-21T09:05:43;10.00;99.90
52643;DHT22;38531;53.296;6.614;2023-02-21T09:08:09;10.00;99.90
52643;DHT22;38531;53.296;6.614;2023-02-21T09:10:35;10.00;99.90
52643;DHT22;38531;53.296;6.614;2023-02-21T09:13:02;10.00;99.90
52643;DHT22;38531;53.296;6.614;2023-02-21T09:15:31;10.10;99.90
52643;DHT22;38531;53.296;6.614;2023-02-21T09:17:59;10.10;99.90
52643;DHT22;38531;53.296;6.614;2023-02-21T09:20:25;10.20;99.90
52643;DHT22;38531;53.296;6.614;2023-02-21T09:22:51;10.30;99.90
52643;DHT22;38531;53.296;6.614;2023-02-21T09:25:21;10.30;99.90
52643;DHT22;38531;53.296;6.614;2023-02-21T09:27:49;10.00;99.90
52643;DHT22;38531;53.296;6.614;2023-02-21T09:30:18;11.00;99.90
52643;DHT22;38531;53.296;6.614;2023-02-21T09:32:46;10.60;99.90
52643;DHT22;38531;53.296;6.614;2023-02-21T09:35:13;10.60;99.90
52643;DHT22;38531;53.296;6.614;2023-02-21T09:37:40;10.70;99.90
52643;DHT22;38531;53.296;6.614;2023-02-21T09:42:54;10.80;99.90
52643;DHT22;38531;53.296;6.614;2023-02-21T09:45:30;10.70;99.90
52643;DHT22;38531;53.296;6.614;2023-02-21T09:48:00;10.80;99.90
52643;DHT22;38531;53.296;6.614;2023-02-21T09:50:30;10.80;99.90
52643;DHT22;38531;53.296;6.614;2023-02-21T09:52:59;10.90;99.90
52643;DHT22;38531;53.296;6.614;2023-02-21T09:55:37;10.90;99.90
52643;DHT22;38531;53.296;6.614;2023-02-21T09:58:10;10.90;99.90
52643;DHT22;38531;53.296;6.614;2023-02-21T10:00:37;10.90;99.90
52643;DHT22;38531;53.296;6.614;2023-02-21T10:05:47;10.90;99.90
52643;DHT22;38531;53.296;6.614;2023-02-21T10:11:04;11.00;99.90
52643;DHT22;38531;53.296;6.614;2023-02-21T10:18:46;10.30;99.90
52643;DHT22;38531;53.296;6.614;2023-02-21T10:21:31;10.90;99.90
52643;DHT22;38531;53.296;6.614;2023-02-21T10:23:59;10.90;99.90
52643;DHT22;38531;53.296;6.614;2023-02-21T10:26:34;10.90;99.90
52643;DHT22;38531;53.296;6.614;2023-02-21T10:29:07;10.90;99.90
52643;DHT22;38531;53.296;6.614;2023-02-21T10:31:36;10.90;99.90
52643;DHT22;38531;53.296;6.614;2023-02-21T10:34:05;11.00;99.90
52643;DHT22;38531;53.296;6.614;2023-02-21T10:36:33;11.00;99.90
52643;DHT22;38531;53.296;6.614;2023-02-21T10:39:14;11.00;99.90
52643;DHT22;38531;53.296;6.614;2023-02-21T10:41:41;10.90;99.90
52643;DHT22;38531;53.296;6.614;2023-02-21T10:44:28;10.90;99.90
52643;DHT22;38531;53.296;6.614;2023-02-21T10:47:21;10.90;99.90
52643;DHT22;38531;53.296;6.614;2023-02-21T10:50:03;10.90;99.90
52643;DHT22;38531;53.296;6.614;2023-02-21T10:52:36;10.90;99.90
52643;DHT22;38531;53.296;6.614;2023-02-21T10:55:20;11.00;99.90
52643;DHT22;38531;53.296;6.614;2023-02-21T10:57:52;10.90;99.90
52643;DHT22;38531;53.296;6.614;2023-02-21T11:00:33;11.00;99.90
52643;DHT22;38531;53.296;6.614;2023-02-21T11:05:39;11.00;99.90
52643;DHT22;38531;53.296;6.614;2023-02-21T11:08:08;11.00;99.90
52643;DHT22;38531;53.296;6.614;2023-02-21T11:10:37;11.00;99.90
52643;DHT22;38531;53.296;6.614;2023-02-21T11:13:15;11.10;99.90
52643;DHT22;38531;53.296;6.614;2023-02-21T11:15:45;11.00;99.90
52643;DHT22;38531;53.296;6.614;2023-02-21T11:18:18;11.00;99.90
52643;DHT22;38531;53.296;6.614;2023-02-21T11:20:44;11.00;99.90
52643;DHT22;38531;53.296;6.614;2023-02-21T11:23:24;11.00;99.90
52643;DHT22;38531;53.296;6.614;2023-02-21T11:26:11;11.00;99.90
52643;DHT22;38531;53.296;6.614;2023-02-21T11:28:37;11.00;99.90
52643;DHT22;38531;53.296;6.614;2023-02-21T11:31:10;11.00;99.90
52643;DHT22;38531;53.296;6.614;2023-02-21T11:34:02;10.90;99.90
52643;DHT22;38531;53.296;6.614;2023-02-21T11:36:33;10.90;99.90
52643;DHT22;38531;53.296;6.614;2023-02-21T11:39:14;11.00;99.90
52643;DHT22;38531;53.296;6.614;2023-02-21T11:41:47;10.90;99.90
52643;DHT22;38531;53.296;6.614;2023-02-21T11:44:34;11.00;99.90
52643;DHT22;38531;53.296;6.614;2023-02-21T11:47:18;10.90;99.90
52643;DHT22;38531;53.296;6.614;2023-02-21T11:52:21;11.00;99.90
52643;DHT22;38531;53.296;6.614;2023-02-21T11:54:47;11.00;99.90
52643;DHT22;38531;53.296;6.614;2023-02-21T11:59:46;11.00;99.90
52643;DHT22;38531;53.296;6.614;2023-02-21T12:05:24;11.00;99.90
52643;DHT22;38531;53.296;6.614;2023-02-21T12:08:19;11.00;99.90
52643;DHT22;38531;53.296;6.614;2023-02-21T12:11:13;11.00;99.90
52643;DHT22;38531;53.296;6.614;2023-02-21T12:16:45;11.00;99.90
52643;DHT22;38531;53.296;6.614;2023-02-21T12:19:30;10.90;99.90
52643;DHT22;38531;53.296;6.614;2023-02-21T12:28:03;11.00;99.90
52643;DHT22;38531;53.296;6.614;2023-02-21T12:36:30;11.00;99.90
52643;DHT22;38531;53.296;6.614;2023-02-21T12:47:15;11.20;99.90
52643;DHT22;38531;53.296;6.614;2023-02-21T12:49:53;11.10;99.90
52643;DHT22;38531;53.296;6.614;2023-02-21T12:52:35;11.30;99.90
52643;DHT22;38531;53.296;6.614;2023-02-21T13:00:53;11.10;99.90
52643;DHT22;38531;53.296;6.614;2023-02-21T13:06:13;11.10;99.90
52643;DHT22;38531;53.296;6.614;2023-02-21T13:09:00;11.10;99.90
52643;DHT22;38531;53.296;6.614;2023-02-21T13:14:25;11.10;99.90
52643;DHT22;38531;53.296;6.614;2023-02-21T13:16:53;11.10;99.90
52643;DHT22;38531;53.296;6.614;2023-02-21T13:19:19;11.10;99.90
52643;DHT22;38531;53.296;6.614;2023-02-21T13:32:57;11.10;99.90
52643;DHT22;38531;53.296;6.614;2023-02-21T13:35:34;11.10;99.90
52643;DHT22;38531;53.296;6.614;2023-02-21T13:38:03;11.10;99.90
52643;DHT22;38531;53.296;6.614;2023-02-21T13:40:33;11.10;99.90
52643;DHT22;38531;53.296;6.614;2023-02-21T13:43:12;11.10;99.90
52643;DHT22;38531;53.296;6.614;2023-02-21T13:45:39;11.20;99.90
52643;DHT22;38531;53.296;6.614;2023-02-21T13:53:16;11.20;99.90
52643;DHT22;38531;53.296;6.614;2023-02-21T13:58:36;11.20;99.90
52643;DHT22;38531;53.296;6.614;2023-02-21T14:03:54;11.10;99.90
52643;DHT22;38531;53.296;6.614;2023-02-21T14:06:31;11.10;99.90
52643;DHT22;38531;53.296;6.614;2023-02-21T14:09:01;11.10;99.90
52643;DHT22;38531;53.296;6.614;2023-02-21T14:11:34;11.20;99.90
52643;DHT22;38531;53.296;6.614;2023-02-21T14:21:42;11.20;99.90
52643;DHT22;38531;53.296;6.614;2023-02-21T14:26:54;11.20;99.90
52643;DHT22;38531;53.296;6.614;2023-02-21T14:37:36;11.30;99.90
52643;DHT22;38531;53.296;6.614;2023-02-21T14:50:40;11.30;99.90
52643;DHT22;38531;53.296;6.614;2023-02-21T15:09:41;11.10;99.90
52643;DHT22;38531;53.296;6.614;2023-02-21T15:12:15;11.10;99.90
52643;DHT22;38531;53.296;6.614;2023-02-21T15:14:51;11.10;99.90
52643;DHT22;38531;53.296;6.614;2023-02-21T15:17:20;11.10;99.90
52643;DHT22;38531;53.296;6.614;2023-02-21T15:19:46;11.10;99.90
52643;DHT22;38531;53.296;6.614;2023-02-21T15:22:26;11.00;99.90
52643;DHT22;38531;53.296;6.614;2023-02-21T15:25:07;11.00;99.90
52643;DHT22;38531;53.296;6.614;2023-02-21T15:30:34;10.90;99.90
52643;DHT22;38531;53.296;6.614;2023-02-21T15:33:05;10.80;99.90
52643;DHT22;38531;53.296;6.614;2023-02-21T15:35:37;10.80;99.90
52643;DHT22;38531;53.296;6.614;2023-02-21T15:38:10;10.80;99.90
52643;DHT22;38531;53.296;6.614;2023-02-21T15:40:38;10.70;99.90
52643;DHT22;38531;53.296;6.614;2023-02-21T15:43:05;10.70;99.90
52643;DHT22;38531;53.296;6.614;2023-02-21T15:45:46;10.60;99.90
52643;DHT22;38531;53.296;6.614;2023-02-21T15:48:13;10.50;99.90
52643;DHT22;38531;53.296;6.614;2023-02-21T15:50:49;10.90;99.90
52643;DHT22;38531;53.296;6.614;2023-02-21T15:55:42;10.60;99.90
52643;DHT22;38531;53.296;6.614;2023-02-21T16:03:42;10.30;99.90
52643;DHT22;38531;53.296;6.614;2023-02-21T16:06:24;10.50;99.90
52643;DHT22;38531;53.296;6.614;2023-02-21T16:09:28;10.30;99.90
52643;DHT22;38531;53.296;6.614;2023-02-21T16:14:55;9.60;99.90
52643;DHT22;38531;53.296;6.614;2023-02-21T16:20:01;10.20;99.90
52643;DHT22;38531;53.296;6.614;2023-02-21T16:22:39;10.20;99.90
52643;DHT22;38531;53.296;6.614;2023-02-21T16:27:33;10.10;99.90
52643;DHT22;38531;53.296;6.614;2023-02-21T16:29:59;10.10;99.90
52643;DHT22;38531;53.296;6.614;2023-02-21T16:32:25;10.00;99.90
52643;DHT22;38531;53.296;6.614;2023-02-21T16:34:51;10.00;99.90
52643;DHT22;38531;53.296;6.614;2023-02-21T16:37:20;10.00;99.90
52643;DHT22;38531;53.296;6.614;2023-02-21T16:39:47;9.90;99.90
52643;DHT22;38531;53.296;6.614;2023-02-21T16:42:14;9.90;99.90
52643;DHT22;38531;53.296;6.614;2023-02-21T16:44:42;9.90;99.90
52643;DHT22;38531;53.296;6.614;2023-02-21T16:47:12;9.80;99.90
52643;DHT22;38531;53.296;6.614;2023-02-21T16:49:38;9.80;99.90
52643;DHT22;38531;53.296;6.614;2023-02-21T16:52:04;9.70;99.90
52643;DHT22;38531;53.296;6.614;2023-02-21T16:54:30;9.70;99.90
52643;DHT22;38531;53.296;6.614;2023-02-21T16:56:56;9.70;99.90
52643;DHT22;38531;53.296;6.614;2023-02-21T16:59:23;9.70;99.90
52643;DHT22;38531;53.296;6.614;2023-02-21T17:01:49;9.60;99.90
52643;DHT22;38531;53.296;6.614;2023-02-21T17:04:22;9.60;99.90
52643;DHT22;38531;53.296;6.614;2023-02-21T17:06:59;9.60;99.90
52643;DHT22;38531;53.296;6.614;2023-02-21T17:09:28;9.60;99.90
52643;DHT22;38531;53.296;6.614;2023-02-21T17:11:54;9.60;99.90
52643;DHT22;38531;53.296;6.614;2023-02-21T17:14:20;9.50;99.90
52643;DHT22;38531;53.296;6.614;2023-02-21T17:16:46;9.50;99.90
52643;DHT22;38531;53.296;6.614;2023-02-21T17:19:14;9.50;99.90
52643;DHT22;38531;53.296;6.614;2023-02-21T17:21:40;9.50;99.90
52643;DHT22;38531;53.296;6.614;2023-02-21T17:24:06;9.10;99.90
52643;DHT22;38531;53.296;6.614;2023-02-21T17:26:32;9.50;99.90
52643;DHT22;38531;53.296;6.614;2023-02-21T17:28:57;9.40;99.90
52643;DHT22;38531;53.296;6.614;2023-02-21T17:31:23;9.40;99.90
52643;DHT22;38531;53.296;6.614;2023-02-21T17:33:49;9.40;99.90
52643;DHT22;38531;53.296;6.614;2023-02-21T17:36:21;9.40;99.90
52643;DHT22;38531;53.296;6.614;2023-02-21T17:38:47;9.50;99.90
52643;DHT22;38531;53.296;6.614;2023-02-21T17:41:13;9.40;99.90
52643;DHT22;38531;53.296;6.614;2023-02-21T17:43:40;9.40;99.90
52643;DHT22;38531;53.296;6.614;2023-02-21T17:46:13;9.40;99.90
52643;DHT22;38531;53.296;6.614;2023-02-21T17:48:40;9.30;99.90
52643;DHT22;38531;53.296;6.614;2023-02-21T17:51:07;9.30;99.90
52643;DHT22;38531;53.296;6.614;2023-02-21T17:53:33;9.30;99.90
52643;DHT22;38531;53.296;6.614;2023-02-21T17:55:59;9.70;99.90
52643;DHT22;38531;53.296;6.614;2023-02-21T17:58:26;9.20;99.90
52643;DHT22;38531;53.296;6.614;2023-02-21T18:00:54;9.20;99.90
52643;DHT22;38531;53.296;6.614;2023-02-21T18:03:24;9.20;99.90
52643;DHT22;38531;53.296;6.614;2023-02-21T18:05:50;9.20;99.90
52643;DHT22;38531;53.296;6.614;2023-02-21T18:08:16;9.50;99.90
52643;DHT22;38531;53.296;6.614;2023-02-21T18:10:42;9.20;99.90
52643;DHT22;38531;53.296;6.614;2023-02-21T18:13:18;9.40;99.90
52643;DHT22;38531;53.296;6.614;2023-02-21T18:15:45;9.20;99.90
52643;DHT22;38531;53.296;6.614;2023-02-21T18:18:10;9.10;99.90
52643;DHT22;38531;53.296;6.614;2023-02-21T18:20:36;9.90;99.90
52643;DHT22;38531;53.296;6.614;2023-02-21T18:23:03;9.10;99.90
52643;DHT22;38531;53.296;6.614;2023-02-21T18:25:32;9.10;99.90
52643;DHT22;38531;53.296;6.614;2023-02-21T18:27:58;9.00;99.90
52643;DHT22;38531;53.296;6.614;2023-02-21T18:30:25;9.10;99.90
52643;DHT22;38531;53.296;6.614;2023-02-21T18:32:50;8.50;99.90
52643;DHT22;38531;53.296;6.614;2023-02-21T18:35:16;9.00;99.90
52643;DHT22;38531;53.296;6.614;2023-02-21T18:37:43;9.00;99.90
52643;DHT22;38531;53.296;6.614;2023-02-21T18:40:13;9.00;99.90
52643;DHT22;38531;53.296;6.614;2023-02-21T18:42:42;9.00;99.90
52643;DHT22;38531;53.296;6.614;2023-02-21T18:45:09;9.20;99.90
52643;DHT22;38531;53.296;6.614;2023-02-21T18:47:36;9.00;99.90
52643;DHT22;38531;53.296;6.614;2023-02-21T18:50:03;9.00;99.90
52643;DHT22;38531;53.296;6.614;2023-02-21T18:52:32;9.00;99.90
52643;DHT22;38531;53.296;6.614;2023-02-21T18:54:58;9.00;99.90
52643;DHT22;38531;53.296;6.614;2023-02-21T18:57:29;9.70;99.90
52643;DHT22;38531;53.296;6.614;2023-02-21T18:59:56;9.40;99.90
52643;DHT22;38531;53.296;6.614;2023-02-21T19:02:22;8.90;99.90
52643;DHT22;38531;53.296;6.614;2023-02-21T19:04:48;8.90;99.90